Antonino, Kansas
Current Conditions -  °F | °C
As of 1:15 AM on Saturday 25 Oct 2014 (Local Time) from KHYS Reporting Station
Clear Clear  
Wind Chill: 61°   Ceiling: Unl
Heat Index: 61°   Visibility: 10mi
Dew Point: 48°   Wind: 5mph
Humidity: 63%   Direction: 300°WNW
Pressure: 30.03"   Gusts: NA
Location:  38.8338°N, 99.3297°W
Report Text: KHYS 250615Z AUTO 30004KT 10SM CLR 16/09 A3003 RMK AO1
Loading
Personal Weather Stations






























Interactive Weather Map New forecast layout! Learn more

10-Day Weather Forecast

Advertisements
Track Severe Weather on mobile